Time;durP1;ratioP1;P1;durP2;ratioP2;P2;SDS_P1;SDS_P2;PMS_P1;PMS_P2;Temp;Humidity;BMP_temperature;BMP_pressure;BME280_temperature;BME280_humidity;BME280_pressure;Samples;Min_cycle;Max_cycle;Signal;HPM_P1;HPM_P2
2022/06/20 00:00:34;;;;;;;8.55;1.90;;;13.70;99.90;;;;;;4916622;28;273179;-73
2022/06/20 00:03:00;;;;;;;12.32;2.00;;;13.70;99.90;;;;;;4955850;28;20477;-73
2022/06/20 00:05:36;;;;;;;10.10;1.87;;;13.70;99.90;;;;;;4898132;28;214011;-73
2022/06/20 00:08:04;;;;;;;9.55;1.83;;;13.70;99.90;;;;;;4949792;28;20055;-72
2022/06/20 00:10:31;;;;;;;11.40;2.03;;;13.70;99.90;;;;;;4911544;28;219605;-72
2022/06/20 00:13:00;;;;;;;11.82;1.90;;;13.70;99.90;;;;;;4962381;28;20058;-72
2022/06/20 00:15:34;;;;;;;11.15;1.90;;;13.70;99.90;;;;;;4899653;28;215383;-72
2022/06/20 00:18:04;;;;;;;11.57;1.85;;;13.60;99.90;;;;;;4960148;28;20031;-72
2022/06/20 00:20:30;;;;;;;12.03;2.00;;;13.70;99.90;;;;;;4909368;28;261590;-73
2022/06/20 00:22:56;;;;;;;10.30;1.90;;;13.60;99.90;;;;;;4961855;28;20467;-71
2022/06/20 00:25:23;;;;;;;11.48;2.05;;;13.60;99.90;;;;;;4911133;28;207238;-72
2022/06/20 00:27:53;;;;;;;12.32;2.00;;;13.70;99.90;;;;;;4962160;28;20534;-72
2022/06/20 00:30:20;;;;;;;10.75;1.95;;;13.60;99.90;;;;;;4908147;28;177594;-72
2022/06/20 00:32:46;;;;;;;12.65;2.45;;;13.60;99.90;;;;;;4908675;28;20066;-71
2022/06/20 00:35:14;;;;;;;16.38;2.33;;;13.60;99.90;;;;;;4939335;28;158036;-72
2022/06/20 00:37:40;;;;;;;12.70;2.10;;;13.50;99.90;;;;;;4924645;28;205872;-72
2022/06/20 00:40:29;;;;;;;14.13;2.58;;;13.50;99.90;;;;;;4949541;28;185123;-72
2022/06/20 00:42:56;;;;;;;12.48;2.33;;;13.50;99.90;;;;;;4855997;28;205796;-72
2022/06/20 00:45:25;;;;;;;17.17;2.50;;;13.50;99.90;;;;;;4909790;28;246479;-72
2022/06/20 00:47:56;;;;;;;10.20;2.00;;;13.50;99.90;;;;;;4975914;28;20070;-72
2022/06/20 00:50:29;;;;;;;11.70;2.20;;;13.50;99.90;;;;;;4900622;28;210259;-73
2022/06/20 00:53:17;;;;;;;12.20;2.40;;;13.50;99.90;;;;;;4962306;28;20058;-72
2022/06/20 00:55:57;;;;;;;15.25;2.60;;;13.50;99.90;;;;;;4908674;28;212031;-72
2022/06/20 00:58:35;;;;;;;12.40;2.40;;;13.50;99.90;;;;;;4960636;28;20062;-73
2022/06/20 01:01:02;;;;;;;12.82;2.47;;;13.40;99.90;;;;;;4930643;28;251880;-73
2022/06/20 01:03:33;;;;;;;12.35;2.10;;;13.40;99.90;;;;;;4996104;28;20060;-74
2022/06/20 01:06:06;;;;;;;9.25;1.90;;;13.40;99.90;;;;;;4919226;28;206360;-73
2022/06/20 01:08:44;;;;;;;11.32;2.20;;;13.40;99.90;;;;;;4969977;28;20057;-73
2022/06/20 01:11:26;;;;;;;15.95;2.30;;;13.40;99.90;;;;;;4916725;28;273027;-72
2022/06/20 01:13:53;;;;;;;10.73;2.50;;;13.40;99.90;;;;;;4973397;28;20420;-74
2022/06/20 01:16:25;;;;;;;12.02;2.53;;;13.40;99.90;;;;;;4916162;28;257052;-73
2022/06/20 01:18:52;;;;;;;10.95;2.60;;;13.30;99.90;;;;;;4981426;28;20058;-73
2022/06/20 01:21:27;;;;;;;12.13;2.60;;;13.30;99.90;;;;;;4909226;28;219234;-73
2022/06/20 01:24:23;;;;;;;14.20;2.47;;;13.30;99.90;;;;;;4964238;28;20050;-73
2022/06/20 01:27:17;;;;;;;10.68;2.08;;;13.20;99.90;;;;;;4886109;28;212375;-73
2022/06/20 01:29:43;;;;;;;9.43;2.28;;;13.20;99.90;;;;;;4968147;28;196207;-72
2022/06/20 01:32:11;;;;;;;15.82;2.35;;;13.10;99.90;;;;;;4927814;28;206013;-73
2022/06/20 01:34:37;;;;;;;11.98;2.60;;;13.00;99.90;;;;;;4951952;28;190273;-73
2022/06/20 01:37:29;;;;;;;13.10;2.80;;;13.00;99.90;;;;;;4924864;28;206143;-73
2022/06/20 01:40:00;;;;;;;12.07;2.67;;;12.90;99.90;;;;;;4949697;28;220674;-73
2022/06/20 01:42:29;;;;;;;14.18;2.60;;;12.90;99.90;;;;;;4926737;28;207316;-73
2022/06/20 01:48:09;;;;;;;13.98;2.72;;;12.80;99.90;;;;;;4886528;28;205578;-73
2022/06/20 01:50:36;;;;;;;11.20;2.63;;;12.80;99.90;;;;;;4911703;28;210182;-73
2022/06/20 01:53:04;;;;;;;15.65;2.88;;;12.80;99.90;;;;;;4958521;28;20067;-72
2022/06/20 01:55:32;;;;;;;10.98;2.50;;;12.70;99.90;;;;;;4922213;28;205885;-73
2022/06/20 01:58:08;;;;;;;13.43;2.45;;;12.70;99.90;;;;;;4961011;28;20085;-73
2022/06/20 02:00:35;;;;;;;11.82;2.80;;;12.70;99.90;;;;;;4924116;28;278119;-72
2022/06/20 02:03:07;;;;;;;11.75;2.80;;;12.70;99.90;;;;;;4949360;28;20090;-73
2022/06/20 02:05:34;;;;;;;9.23;2.47;;;12.70;99.90;;;;;;4901219;28;254123;-73
2022/06/20 02:08:04;;;;;;;10.30;2.33;;;12.70;99.90;;;;;;4964626;28;20377;-72
2022/06/20 02:10:37;;;;;;;14.63;2.70;;;12.70;99.90;;;;;;4902354;28;230803;-72
2022/06/20 02:13:04;;;;;;;12.88;2.10;;;12.70;99.90;;;;;;4983097;28;20482;-72
2022/06/20 02:15:32;;;;;;;11.90;2.40;;;12.70;99.90;;;;;;4915954;28;247016;-72
2022/06/20 02:18:02;;;;;;;12.35;2.28;;;12.60;99.90;;;;;;4964052;28;20047;-72
2022/06/20 02:20:38;;;;;;;10.73;2.30;;;12.60;99.90;;;;;;4915391;28;252883;-72
2022/06/20 02:23:04;;;;;;;13.80;2.78;;;12.60;99.90;;;;;;4965910;28;20183;-73
2022/06/20 02:25:34;;;;;;;14.40;2.50;;;12.60;99.90;;;;;;4908016;28;210377;-72
2022/06/20 02:28:08;;;;;;;11.15;2.22;;;12.50;99.90;;;;;;4965631;28;20050;-72
2022/06/20 02:30:35;;;;;;;12.40;2.67;;;12.50;99.90;;;;;;4908050;28;268917;-72
2022/06/20 02:33:16;;;;;;;14.38;2.67;;;12.40;99.90;;;;;;4972796;28;20055;-72
2022/06/20 02:35:43;;;;;;;13.00;2.38;;;12.40;99.90;;;;;;4908460;28;209373;-73
2022/06/20 02:38:09;;;;;;;14.88;2.63;;;12.40;99.90;;;;;;4953201;28;20081;-72
2022/06/20 02:40:41;;;;;;;16.30;3.30;;;12.30;99.90;;;;;;4923303;28;205391;-72
2022/06/20 02:43:22;;;;;;;13.10;3.00;;;12.20;99.90;;;;;;4946833;28;20472;-72
2022/06/20 02:45:51;;;;;;;11.75;2.70;;;12.20;99.90;;;;;;4898758;28;253873;-72
2022/06/20 02:48:18;;;;;;;14.98;3.50;;;12.20;99.90;;;;;;4963648;28;20047;-72
2022/06/20 02:50:53;;;;;;;12.35;3.10;;;12.10;99.90;;;;;;4904752;28;212293;-72
2022/06/20 02:53:32;;;;;;;11.45;3.05;;;12.10;99.90;;;;;;4958945;28;20051;-72
2022/06/20 02:55:59;;;;;;;11.48;3.10;;;12.00;99.90;;;;;;4903236;28;212829;-72
2022/06/20 02:58:29;;;;;;;13.32;3.45;;;12.10;99.90;;;;;;4963228;28;20054;-72
2022/06/20 03:00:59;;;;;;;9.88;3.10;;;12.00;99.90;;;;;;4916277;28;157437;-72
2022/06/20 03:03:33;;;;;;;12.27;3.00;;;11.90;99.90;;;;;;4973728;28;20059;-72
2022/06/20 03:06:02;;;;;;;13.82;2.90;;;11.90;99.90;;;;;;4898256;28;258625;-72
2022/06/20 03:08:29;;;;;;;12.43;3.20;;;11.90;99.90;;;;;;4960354;28;20063;-75
2022/06/20 03:10:55;;;;;;;11.52;2.88;;;11.90;99.90;;;;;;4916196;28;252734;-72
2022/06/20 03:13:23;;;;;;;13.35;2.70;;;11.90;99.90;;;;;;4947540;28;20054;-72
2022/06/20 03:15:50;;;;;;;12.57;3.13;;;11.90;99.90;;;;;;4919813;28;207440;-72
2022/06/20 03:18:18;;;;;;;12.15;2.83;;;11.90;99.90;;;;;;4966321;28;20042;-73
2022/06/20 03:20:45;;;;;;;12.00;2.80;;;11.90;99.90;;;;;;4906255;28;206024;-72
2022/06/20 03:23:27;;;;;;;17.27;3.22;;;11.90;99.90;;;;;;4957990;28;20163;-72
2022/06/20 03:25:56;;;;;;;10.55;2.90;;;11.80;99.90;;;;;;4911053;28;212908;-73
2022/06/20 03:28:23;;;;;;;14.13;3.00;;;11.80;99.90;;;;;;4958546;28;20055;-72
2022/06/20 03:30:51;;;;;;;11.20;2.60;;;11.70;99.90;;;;;;4924776;28;266928;-72
2022/06/20 03:33:18;;;;;;;10.25;2.67;;;11.70;99.90;;;;;;4963586;28;20054;-73
2022/06/20 03:35:53;;;;;;;13.93;3.00;;;11.70;99.90;;;;;;4907129;28;269596;-72
2022/06/20 03:38:20;;;;;;;13.25;2.95;;;11.70;99.90;;;;;;4963534;28;20055;-72
2022/06/20 03:40:47;;;;;;;10.73;2.63;;;11.60;99.90;;;;;;4915569;28;206725;-72
2022/06/20 03:43:18;;;;;;;11.07;2.67;;;11.60;99.90;;;;;;4976909;28;20050;-72
2022/06/20 03:45:51;;;;;;;11.50;2.58;;;11.60;99.90;;;;;;4919941;28;206404;-72
2022/06/20 03:48:22;;;;;;;11.15;2.72;;;11.60;99.90;;;;;;4941746;28;20161;-72
2022/06/20 03:50:58;;;;;;;11.88;3.15;;;11.60;99.90;;;;;;4922828;28;230086;-73
2022/06/20 03:53:30;;;;;;;11.63;2.88;;;11.60;99.90;;;;;;4953041;28;20046;-72
2022/06/20 03:56:11;;;;;;;12.57;2.65;;;11.60;99.90;;;;;;4911724;28;266627;-73
2022/06/20 03:58:44;;;;;;;10.60;2.92;;;11.60;99.90;;;;;;4977302;28;20440;-73
2022/06/20 04:01:23;;;;;;;11.63;2.78;;;11.70;99.90;;;;;;4895146;28;207434;-73
2022/06/20 04:04:14;;;;;;;11.73;2.90;;;11.70;99.90;;;;;;4949074;28;20053;-72
2022/06/20 04:07:14;;;;;;;15.77;3.60;;;11.70;99.90;;;;;;4817708;29;206485;-72
2022/06/20 04:12:54;;;;;;;13.23;3.35;;;11.70;99.90;;;;;;4853436;29;205098;-72
2022/06/20 04:15:25;;;;;;;15.03;3.20;;;11.80;99.90;;;;;;4859688;29;191687;-72
2022/06/20 04:18:27;;;;;;;11.85;2.95;;;11.90;99.90;;;;;;4879217;29;20059;-72
2022/06/20 04:21:02;;;;;;;12.10;2.80;;;11.90;99.90;;;;;;4848385;28;203746;-72
2022/06/20 04:23:42;;;;;;;12.93;2.80;;;12.00;99.90;;;;;;4889524;29;20072;-72
2022/06/20 04:26:20;;;;;;;9.93;2.60;;;12.10;99.90;;;;;;4869222;29;206134;-72
2022/06/20 04:28:54;;;;;;;13.68;2.90;;;12.10;99.90;;;;;;4891533;29;20060;-71
2022/06/20 04:31:44;;;;;;;11.65;3.10;;;12.20;99.90;;;;;;4848863;29;209471;-72
2022/06/20 04:34:31;;;;;;;10.23;2.95;;;12.20;99.90;;;;;;4908070;29;89215;-72
2022/06/20 04:37:03;;;;;;;12.20;3.22;;;12.30;99.90;;;;;;4864875;29;210424;-72
2022/06/20 04:39:47;;;;;;;10.25;2.90;;;12.40;99.90;;;;;;4877309;29;164651;-71
2022/06/20 04:42:39;;;;;;;10.63;2.70;;;12.50;99.90;;;;;;4850299;29;101546;-72
2022/06/20 04:45:11;;;;;;;13.65;2.75;;;12.50;99.90;;;;;;4950690;28;261019;-72
2022/06/20 04:47:49;;;;;;;12.63;2.75;;;12.60;99.90;;;;;;4897718;28;208688;-72
2022/06/20 04:50:25;;;;;;;14.07;3.00;;;12.60;99.90;;;;;;4928364;28;133955;-71
2022/06/20 04:52:54;;;;;;;13.13;2.90;;;12.70;99.90;;;;;;4959214;28;214845;-72
2022/06/20 04:55:23;;;;;;;14.95;3.08;;;12.70;99.90;;;;;;4924321;28;204984;-73
2022/06/20 04:57:55;;;;;;;12.38;2.88;;;12.70;99.90;;;;;;4959808;28;20140;-73
2022/06/20 05:00:25;;;;;;;10.00;3.00;;;12.70;99.90;;;;;;4908509;28;255003;-73
2022/06/20 05:02:53;;;;;;;10.43;3.10;;;12.70;99.90;;;;;;4973826;28;20511;-73
2022/06/20 05:05:24;;;;;;;12.38;3.00;;;12.80;99.90;;;;;;4898294;28;248165;-73
2022/06/20 05:07:51;;;;;;;13.35;2.80;;;12.90;99.90;;;;;;4946308;28;20066;-73
2022/06/20 05:10:24;;;;;;;10.65;3.15;;;12.90;99.90;;;;;;4917866;28;208962;-72
2022/06/20 05:13:01;;;;;;;16.23;3.60;;;13.00;99.90;;;;;;4961383;28;20050;-72
2022/06/20 05:15:42;;;;;;;14.75;3.20;;;13.00;99.90;;;;;;4890626;28;215068;-72
2022/06/20 05:18:40;;;;;;;13.40;3.13;;;13.10;99.90;;;;;;4959298;28;20479;-72
2022/06/20 05:21:17;;;;;;;16.10;3.13;;;13.20;99.90;;;;;;4914114;28;274059;-72
2022/06/20 05:23:51;;;;;;;14.07;3.20;;;13.20;99.90;;;;;;4962153;28;20059;-71
2022/06/20 05:26:21;;;;;;;13.95;3.17;;;13.30;99.90;;;;;;4913337;28;258274;-72
2022/06/20 05:28:50;;;;;;;16.00;3.63;;;13.40;99.90;;;;;;4969382;28;20110;-72
2022/06/20 05:31:22;;;;;;;13.60;3.00;;;13.50;99.90;;;;;;4911076;28;255776;-72
2022/06/20 05:33:59;;;;;;;13.07;3.22;;;13.60;99.90;;;;;;4961255;28;20066;-72
2022/06/20 05:37:03;;;;;;;15.73;3.22;;;13.60;99.90;;;;;;4894688;28;208141;-72
2022/06/20 05:39:33;;;;;;;13.02;3.20;;;13.70;99.90;;;;;;4945626;28;194999;-72
2022/06/20 05:42:01;;;;;;;16.67;3.45;;;13.70;99.90;;;;;;4904390;28;205909;-73
2022/06/20 05:44:27;;;;;;;12.43;3.20;;;13.80;99.90;;;;;;4947058;28;251104;-72
2022/06/20 05:47:01;;;;;;;17.77;3.30;;;13.90;99.90;;;;;;4920347;28;204260;-71
2022/06/20 05:49:32;;;;;;;16.35;3.35;;;14.00;99.90;;;;;;4933530;28;251610;-71
2022/06/20 05:52:00;;;;;;;20.58;3.22;;;14.10;99.90;;;;;;4928370;28;186792;-72
2022/06/20 05:54:43;;;;;;;13.20;3.30;;;14.20;99.90;;;;;;4940462;28;272254;-72
2022/06/20 05:57:20;;;;;;;13.20;3.35;;;14.40;99.90;;;;;;4913298;28;104152;-69
2022/06/20 05:59:50;;;;;;;13.95;3.60;;;14.50;99.90;;;;;;4950157;28;237120;-70
2022/06/20 06:02:39;;;;;;;12.88;3.40;;;14.70;99.90;;;;;;4927291;28;206147;-70
2022/06/20 06:05:18;;;;;;;17.98;3.58;;;14.70;99.90;;;;;;4934895;28;257704;-70
2022/06/20 06:08:02;;;;;;;15.18;3.75;;;14.80;99.90;;;;;;4918329;28;207565;-71
2022/06/20 06:11:03;;;;;;;16.52;3.45;;;15.00;99.90;;;;;;4918026;28;240335;-71
2022/06/20 06:13:38;;;;;;;13.50;3.40;;;15.30;99.90;;;;;;4927791;29;20661;-72
2022/06/20 06:16:47;;;;;;;15.60;3.83;;;15.40;99.90;;;;;;4869949;29;206169;-71
2022/06/20 06:19:32;;;;;;;17.02;4.03;;;15.60;99.90;;;;;;4864510;29;20671;-71
2022/06/20 06:22:03;;;;;;;13.75;3.30;;;15.50;99.90;;;;;;4838207;29;128303;-71
2022/06/20 06:24:32;;;;;;;14.38;3.58;;;15.50;99.90;;;;;;4880047;29;65156;-72
2022/06/20 06:27:01;;;;;;;15.05;3.15;;;15.50;99.90;;;;;;4849112;29;204606;-72
2022/06/20 06:29:39;;;;;;;11.48;3.28;;;15.60;99.90;;;;;;4860779;29;132378;-72
2022/06/20 06:32:17;;;;;;;16.15;3.42;;;15.60;99.90;;;;;;4846052;29;205578;-70
2022/06/20 06:35:08;;;;;;;14.75;3.58;;;15.60;99.90;;;;;;4872851;29;233831;-70
2022/06/20 06:37:50;;;;;;;16.92;3.30;;;15.60;99.90;;;;;;4847033;29;224670;-71
2022/06/20 06:40:30;;;;;;;13.98;3.28;;;15.80;99.90;;;;;;4825668;29;206829;-69
2022/06/20 06:42:59;;;;;;;14.40;3.10;;;16.00;99.90;;;;;;4890287;29;20056;-70
2022/06/20 06:45:28;;;;;;;14.25;3.28;;;16.00;99.90;;;;;;4840521;29;156391;-71
2022/06/20 06:48:01;;;;;;;13.50;3.38;;;16.00;99.90;;;;;;4872726;29;20425;-71
2022/06/20 06:50:41;;;;;;;14.95;3.05;;;16.00;99.90;;;;;;4846960;28;209836;-71
2022/06/20 06:53:48;;;;;;;12.43;3.58;;;16.00;99.90;;;;;;4922502;29;20056;-72
2022/06/20 06:56:58;;;;;;;13.93;2.75;;;16.10;99.90;;;;;;4868917;28;208102;-71
2022/06/20 06:59:32;;;;;;;14.10;3.40;;;16.20;99.90;;;;;;4904911;29;240936;-71
2022/06/20 07:02:02;;;;;;;15.23;3.42;;;16.30;99.90;;;;;;4858603;28;220172;-71
2022/06/20 07:04:36;;;;;;;17.17;3.40;;;16.40;99.90;;;;;;4875280;29;186640;-71
2022/06/20 07:07:15;;;;;;;12.02;2.80;;;16.90;99.90;;;;;;4848973;29;210192;-71
2022/06/20 07:09:50;;;;;;;12.30;2.72;;;17.50;99.90;;;;;;4905757;28;170406;-70
2022/06/20 07:12:23;;;;;;;12.20;2.67;;;17.40;99.90;;;;;;4873054;29;141112;-71
2022/06/20 07:15:06;;;;;;;12.30;2.90;;;17.10;99.90;;;;;;4912026;28;40269;-70
2022/06/20 07:17:54;;;;;;;15.10;2.95;;;16.70;99.90;;;;;;4868587;29;209617;-71
2022/06/20 07:20:24;;;;;;;17.33;2.78;;;16.40;99.90;;;;;;4865478;28;207482;-70
2022/06/20 07:22:51;;;;;;;16.83;3.30;;;16.00;99.90;;;;;;4909779;29;20062;-70
2022/06/20 07:25:25;;;;;;;15.85;3.65;;;16.00;99.90;;;;;;4873620;28;207186;-69
2022/06/20 07:28:00;;;;;;;13.07;3.58;;;15.80;99.90;;;;;;4944085;28;20050;-71
2022/06/20 07:30:32;;;;;;;16.17;3.55;;;15.80;99.90;;;;;;4910809;28;253739;-71
2022/06/20 07:33:09;;;;;;;13.70;3.10;;;16.10;99.90;;;;;;4965476;28;20050;-72
2022/06/20 07:35:41;;;;;;;18.45;2.97;;;16.10;99.90;;;;;;4922371;28;280034;-71
2022/06/20 07:38:15;;;;;;;12.15;3.00;;;16.20;99.90;;;;;;4963327;28;21055;-70
2022/06/20 07:41:01;;;;;;;14.05;3.10;;;16.10;99.90;;;;;;4911242;28;248124;-70
2022/06/20 07:43:34;;;;;;;11.20;2.83;;;16.10;99.90;;;;;;4976642;28;20071;-70
2022/06/20 07:46:11;;;;;;;15.73;2.88;;;15.90;99.90;;;;;;4912557;28;255278;-70
2022/06/20 07:48:41;;;;;;;12.40;2.72;;;16.00;99.90;;;;;;4964259;28;20069;-70
2022/06/20 07:51:39;;;;;;;16.80;3.15;;;16.00;99.90;;;;;;4914334;28;269250;-71
2022/06/20 07:54:27;;;;;;;10.88;2.38;;;16.40;99.90;;;;;;4896768;29;84366;-70
2022/06/20 07:57:00;;;;;;;11.68;2.45;;;16.80;99.90;;;;;;4819870;29;206901;-71
2022/06/20 07:59:35;;;;;;;13.55;2.97;;;17.10;99.90;;;;;;4876683;29;130396;-70
2022/06/20 08:02:14;;;;;;;11.73;2.65;;;17.40;99.90;;;;;;4871813;28;120890;-70
2022/06/20 08:04:44;;;;;;;11.15;2.25;;;17.60;99.90;;;;;;4877644;29;237481;-70
2022/06/20 08:07:24;;;;;;;13.93;2.50;;;18.10;99.90;;;;;;4859689;29;212208;-70
2022/06/20 08:09:53;;;;;;;11.07;2.35;;;18.30;99.90;;;;;;4890323;29;168112;-71
2022/06/20 08:12:45;;;;;;;12.73;2.53;;;17.90;99.20;;;;;;4857426;29;212050;-72
2022/06/20 08:15:16;;;;;;;12.60;2.10;;;17.50;99.90;;;;;;4871880;29;149795;-70
2022/06/20 08:17:42;;;;;;;11.70;1.73;;;17.30;98.60;;;;;;4845286;29;105073;-70
2022/06/20 08:20:10;;;;;;;11.18;2.10;;;17.00;99.80;;;;;;4894936;29;36500;-70
2022/06/20 08:22:49;;;;;;;10.93;2.03;;;16.90;99.80;;;;;;4826891;29;251696;-71
2022/06/20 08:25:29;;;;;;;10.00;1.90;;;17.40;99.70;;;;;;4855237;29;94164;-72
2022/06/20 08:28:20;;;;;;;9.25;1.80;;;17.90;99.60;;;;;;4890981;29;207255;-71
2022/06/20 08:30:52;;;;;;;11.15;1.83;;;18.40;99.90;;;;;;4862942;28;209537;-72
2022/06/20 08:33:24;;;;;;;10.93;1.85;;;18.60;99.70;;;;;;4924095;29;20062;-70
2022/06/20 08:35:59;;;;;;;9.88;1.92;;;18.50;98.20;;;;;;4873011;28;129189;-70
2022/06/20 08:38:44;;;;;;;9.60;1.70;;;18.10;97.80;;;;;;4914648;29;20067;-70
2022/06/20 08:41:44;;;;;;;9.82;1.98;;;17.60;98.90;;;;;;4865725;28;212912;-71
2022/06/20 08:44:37;;;;;;;8.05;1.67;;;17.90;98.00;;;;;;4918051;29;61985;-71
2022/06/20 08:47:30;;;;;;;9.85;1.75;;;18.40;98.40;;;;;;4885584;28;204794;-71
2022/06/20 08:50:37;;;;;;;9.02;1.70;;;18.60;96.70;;;;;;4907650;28;247597;-71
2022/06/20 08:53:40;;;;;;;11.93;1.75;;;18.50;96.60;;;;;;4846678;29;205334;-70
2022/06/20 08:56:23;;;;;;;9.45;1.50;;;18.20;96.50;;;;;;4829980;29;191014;-71
2022/06/20 08:59:06;;;;;;;6.57;1.42;;;18.20;98.80;;;;;;4885221;29;20063;-71
2022/06/20 09:01:32;;;;;;;7.07;1.45;;;18.50;93.00;;;;;;4819525;29;250124;-70
2022/06/20 09:04:40;;;;;;;8.05;1.50;;;18.60;92.70;;;;;;4879884;29;20063;-72
2022/06/20 09:07:37;;;;;;;7.40;1.60;;;18.70;93.20;;;;;;4757154;29;206752;-70
2022/06/20 09:10:15;;;;;;;9.13;1.75;;;18.70;92.90;;;;;;4837133;29;130043;-70
2022/06/20 09:13:02;;;;;;;10.35;1.80;;;18.40;93.30;;;;;;4810739;29;186379;-70
2022/06/20 09:15:55;;;;;;;8.82;1.70;;;18.20;93.90;;;;;;4796281;29;214557;-70
2022/06/20 09:18:49;;;;;;;11.18;1.80;;;18.10;95.20;;;;;;4845285;29;20053;-71
2022/06/20 09:21:55;;;;;;;7.07;1.42;;;17.60;95.80;;;;;;4792483;29;206342;-71
2022/06/20 09:24:43;;;;;;;9.70;1.90;;;17.50;96.60;;;;;;4858420;29;142611;-70
2022/06/20 09:27:16;;;;;;;9.20;1.80;;;17.30;97.70;;;;;;4827215;29;206439;-70
2022/06/20 09:30:18;;;;;;;12.60;2.10;;;17.70;97.80;;;;;;4855701;29;168404;-70
2022/06/20 09:33:08;;;;;;;8.98;1.92;;;18.50;97.20;;;;;;4804946;29;216914;-71
2022/06/20 09:35:37;;;;;;;9.37;1.80;;;19.00;96.30;;;;;;4815009;29;206173;-72
2022/06/20 09:38:15;;;;;;;7.45;1.48;;;19.10;95.30;;;;;;4856127;29;20047;-71
2022/06/20 09:40:47;;;;;;;8.68;1.80;;;19.20;94.70;;;;;;4807012;29;170368;-70
2022/06/20 09:43:37;;;;;;;10.43;1.75;;;19.30;92.30;;;;;;4877066;29;20056;-70
2022/06/20 09:46:34;;;;;;;8.68;1.73;;;19.20;93.40;;;;;;4841778;28;232585;-71
2022/06/20 09:49:17;;;;;;;11.45;2.00;;;18.80;93.80;;;;;;4891673;29;20051;-70
2022/06/20 09:52:00;;;;;;;12.65;1.77;;;19.20;94.80;;;;;;4823583;29;206612;-71
2022/06/20 09:54:30;;;;;;;10.00;1.65;;;19.60;90.80;;;;;;4869783;29;199597;-70
2022/06/20 09:57:23;;;;;;;9.90;1.63;;;19.70;87.10;;;;;;4825135;29;205386;-71
2022/06/20 09:59:56;;;;;;;11.48;1.80;;;19.80;88.50;;;;;;4892085;28;81700;-71
2022/06/20 10:02:41;;;;;;;9.43;1.60;;;19.60;90.20;;;;;;4887576;28;206955;-71
2022/06/20 10:05:26;;;;;;;10.00;1.58;;;18.90;91.00;;;;;;4904044;29;102347;-69
2022/06/20 10:08:06;;;;;;;13.23;2.00;;;18.50;93.80;;;;;;4859167;29;134208;-70
2022/06/20 10:10:47;;;;;;;10.40;1.80;;;18.20;95.90;;;;;;4867806;28;205222;-69
2022/06/20 10:13:33;;;;;;;10.88;2.05;;;17.90;96.80;;;;;;4928732;29;20084;-71
2022/06/20 10:16:16;;;;;;;9.55;1.90;;;18.10;97.30;;;;;;4857624;28;206986;-70
2022/06/20 10:18:59;;;;;;;8.20;1.70;;;18.30;96.90;;;;;;4893873;29;20439;-70
2022/06/20 10:21:55;;;;;;;10.98;1.92;;;18.70;95.60;;;;;;4864550;28;277128;-71
2022/06/20 10:24:52;;;;;;;9.98;1.80;;;19.30;97.80;;;;;;4916444;28;35028;-72
2022/06/20 10:27:52;;;;;;;8.88;1.40;;;20.10;93.10;;;;;;4937651;28;212486;-69
2022/06/20 10:30:24;;;;;;;9.80;1.60;;;20.10;90.90;;;;;;4911339;28;219438;-71
2022/06/20 10:32:57;;;;;;;9.48;1.60;;;20.70;95.70;;;;;;4956539;28;20051;-70
2022/06/20 10:35:54;;;;;;;7.03;1.60;;;21.60;95.00;;;;;;4912170;28;249893;-70
2022/06/20 10:38:43;;;;;;;13.88;1.40;;;21.80;84.10;;;;;;4908224;29;20086;-69
2022/06/20 10:41:39;;;;;;;7.72;1.40;;;20.70;74.80;;;;;;4863234;29;206651;-70
2022/06/20 10:44:31;;;;;;;9.60;1.83;;;19.40;77.90;;;;;;4909691;29;124531;-70
2022/06/20 10:47:07;;;;;;;10.25;1.95;;;18.70;87.40;;;;;;4873819;29;217947;-70
2022/06/20 10:49:42;;;;;;;8.65;1.70;;;18.50;92.60;;;;;;4893318;29;248911;-70
2022/06/20 10:52:13;;;;;;;9.60;1.70;;;19.10;94.10;;;;;;4878221;29;209366;-70
2022/06/20 10:54:53;;;;;;;13.05;2.03;;;19.40;92.90;;;;;;4914184;29;41817;-72
2022/06/20 10:57:37;;;;;;;8.25;1.63;;;19.70;92.00;;;;;;4883638;29;151677;-71
2022/06/20 11:00:10;;;;;;;6.80;1.52;;;19.50;91.90;;;;;;4910215;29;167029;-71
2022/06/20 11:02:54;;;;;;;8.30;1.83;;;19.30;91.70;;;;;;4882102;29;206640;-71
2022/06/20 11:05:57;;;;;;;10.38;1.60;;;19.30;91.80;;;;;;4832272;29;252149;-70
2022/06/20 11:08:31;;;;;;;9.98;1.77;;;20.40;90.10;;;;;;4907023;29;20060;-71
2022/06/20 11:11:31;;;;;;;8.63;1.63;;;21.30;88.20;;;;;;4866791;29;206836;-70
2022/06/20 11:14:10;;;;;;;9.33;2.00;;;21.40;81.20;;;;;;4928073;29;20501;-71
2022/06/20 11:17:04;;;;;;;8.70;1.70;;;20.90;83.60;;;;;;4872534;28;208000;-70
2022/06/20 11:19:53;;;;;;;11.10;1.80;;;21.10;87.50;;;;;;4947693;28;268985;-69
2022/06/20 11:22:34;;;;;;;10.10;1.83;;;21.00;83.80;;;;;;4940501;28;207082;-69
2022/06/20 11:25:18;;;;;;;12.85;2.00;;;20.70;83.10;;;;;;4954427;28;249875;-70
2022/06/20 11:28:02;;;;;;;8.10;1.75;;;20.00;81.20;;;;;;4896323;28;206169;-70
2022/06/20 11:30:56;;;;;;;9.30;1.73;;;20.10;84.00;;;;;;4919355;28;270754;-70
2022/06/20 11:34:01;;;;;;;9.85;1.63;;;20.30;74.70;;;;;;4974944;28;20054;-68
2022/06/20 11:36:45;;;;;;;9.60;1.83;;;20.90;75.40;;;;;;4920063;28;205799;-70
2022/06/20 11:39:32;;;;;;;10.45;1.90;;;21.50;77.10;;;;;;4947781;28;260533;-69
2022/06/20 11:42:17;;;;;;;9.90;1.65;;;21.30;73.80;;;;;;4907038;28;201253;-69
2022/06/20 11:44:49;;;;;;;9.23;1.75;;;21.00;72.30;;;;;;4952817;28;193916;-70
2022/06/20 11:47:40;;;;;;;10.68;2.25;;;20.70;76.30;;;;;;4929887;28;154897;-70
2022/06/20 11:50:32;;;;;;;13.73;2.03;;;20.50;75.90;;;;;;4968628;28;164309;-71
2022/06/20 11:53:09;;;;;;;10.18;1.90;;;19.30;82.80;;;;;;4911146;28;207595;-71
2022/06/20 11:55:46;;;;;;;11.27;2.10;;;18.50;87.60;;;;;;4910355;28;260168;-71
2022/06/20 11:58:18;;;;;;;10.32;1.98;;;18.80;90.40;;;;;;4980882;28;20034;-70
2022/06/20 12:01:01;;;;;;;10.70;2.10;;;19.10;88.00;;;;;;4905738;28;249683;-69
2022/06/20 12:03:36;;;;;;;11.73;2.00;;;20.20;88.30;;;;;;4962690;28;20385;-70
2022/06/20 12:06:16;;;;;;;9.88;1.80;;;21.10;86.50;;;;;;4905066;28;271274;-70
2022/06/20 12:08:51;;;;;;;7.07;1.75;;;21.90;82.30;;;;;;4964554;28;20236;-72
2022/06/20 12:11:29;;;;;;;8.77;1.58;;;22.20;77.80;;;;;;4921235;28;265253;-71
2022/06/20 12:13:59;;;;;;;7.25;1.50;;;22.80;75.20;;;;;;4969440;28;20050;-72
2022/06/20 12:17:02;;;;;;;8.33;1.50;;;23.20;72.20;;;;;;4919421;28;264847;-71
2022/06/20 12:25:39;;;;;;;8.80;1.60;;;21.40;72.40;;;;;;4910453;28;257947;-71
2022/06/20 12:28:23;;;;;;;8.43;1.70;;;21.00;74.20;;;;;;4976570;28;20054;-71
2022/06/20 12:31:07;;;;;;;9.10;1.65;;;21.60;76.40;;;;;;4904379;28;210178;-72
2022/06/20 12:33:36;;;;;;;7.15;1.60;;;22.00;72.00;;;;;;4972160;28;20054;-74
2022/06/20 12:36:20;;;;;;;8.93;1.70;;;22.30;71.90;;;;;;4919883;28;272022;-71
2022/06/20 12:39:15;;;;;;;6.10;1.33;;;22.80;68.00;;;;;;4970534;28;20042;-71
2022/06/20 12:41:46;;;;;;;8.65;1.63;;;22.30;66.00;;;;;;4926218;28;206780;-72
2022/06/20 12:44:15;;;;;;;7.95;1.48;;;21.90;68.70;;;;;;4947059;28;261449;-72
2022/06/20 12:46:50;;;;;;;9.20;1.58;;;21.70;70.80;;;;;;4909973;28;205644;-72
2022/06/20 12:49:35;;;;;;;8.25;1.60;;;21.40;68.60;;;;;;4957397;28;256758;-72
2022/06/20 12:52:21;;;;;;;10.23;1.73;;;20.70;69.40;;;;;;4934709;28;204480;-71
2022/06/20 12:55:07;;;;;;;8.82;1.50;;;20.70;72.30;;;;;;4950740;28;268024;-72
2022/06/20 12:57:52;;;;;;;8.50;1.60;;;21.30;71.60;;;;;;4928190;28;208257;-72
2022/06/20 13:00:18;;;;;;;7.10;1.40;;;22.10;67.50;;;;;;4912055;28;248107;-74
2022/06/20 13:03:32;;;;;;;7.72;1.60;;;21.40;68.10;;;;;;4977295;28;20061;-73
2022/06/20 13:06:28;;;;;;;9.00;1.60;;;20.60;71.00;;;;;;4896288;28;264194;-71
2022/06/20 13:08:54;;;;;;;8.00;1.50;;;19.80;76.50;;;;;;4969217;28;20058;-73
2022/06/20 13:11:41;;;;;;;6.03;1.30;;;20.10;76.00;;;;;;4921355;28;206650;-70
2022/06/20 13:14:31;;;;;;;11.48;1.73;;;19.90;72.20;;;;;;4958383;28;20050;-71
2022/06/20 13:17:18;;;;;;;7.50;1.55;;;19.90;75.10;;;;;;4933791;28;206513;-72
2022/06/20 13:19:59;;;;;;;8.23;1.65;;;20.10;76.00;;;;;;4963120;28;168971;-72
2022/06/20 13:22:44;;;;;;;10.55;1.70;;;19.90;78.10;;;;;;4917494;28;207004;-71
2022/06/20 13:25:10;;;;;;;8.60;1.60;;;20.10;77.60;;;;;;4949820;28;89927;-71
2022/06/20 13:27:48;;;;;;;11.60;1.90;;;19.30;79.30;;;;;;4938459;28;181482;-72
2022/06/20 13:30:26;;;;;;;9.70;1.88;;;19.10;82.70;;;;;;4932050;28;270422;-71
2022/06/20 13:33:31;;;;;;;8.65;1.77;;;19.20;82.10;;;;;;4927565;28;212853;-72
2022/06/20 13:36:22;;;;;;;9.45;1.80;;;19.30;82.40;;;;;;4922071;28;205775;-73
2022/06/20 13:39:03;;;;;;;9.73;2.03;;;19.20;85.00;;;;;;4967402;28;20159;-72
2022/06/20 13:41:49;;;;;;;7.05;1.67;;;19.00;84.40;;;;;;4910369;28;207266;-71